sensor_id;sensor_type;location;lat;lon;timestamp;pressure;altitude;pressure_sealevel;temperature;humidity
62333;BME280;48624;49.812;8.562;2022-08-19T00:01:34;100158.00;;;21.69;72.11
62333;BME280;48624;49.812;8.562;2022-08-19T00:04:03;100154.81;;;21.66;72.59
62333;BME280;48624;49.812;8.562;2022-08-19T00:06:29;100161.03;;;21.51;73.24
62333;BME280;48624;49.812;8.562;2022-08-19T00:08:56;100162.63;;;21.60;73.12
62333;BME280;48624;49.812;8.562;2022-08-19T00:11:22;100159.56;;;21.63;72.35
62333;BME280;48624;49.812;8.562;2022-08-19T00:13:47;100161.72;;;21.68;72.28
62333;BME280;48624;49.812;8.562;2022-08-19T00:16:16;100157.84;;;21.71;72.22
62333;BME280;48624;49.812;8.562;2022-08-19T00:18:43;100146.63;;;21.59;72.68
62333;BME280;48624;49.812;8.562;2022-08-19T00:21:08;100144.59;;;21.61;72.59
62333;BME280;48624;49.812;8.562;2022-08-19T00:23:35;100138.53;;;21.59;72.81
62333;BME280;48624;49.812;8.562;2022-08-19T00:26:02;100140.00;;;21.70;72.43
62333;BME280;48624;49.812;8.562;2022-08-19T00:28:28;100131.25;;;21.68;72.56
62333;BME280;48624;49.812;8.562;2022-08-19T00:30:53;100133.44;;;21.64;72.75
62333;BME280;48624;49.812;8.562;2022-08-19T00:33:19;100127.38;;;21.62;72.52
62333;BME280;48624;49.812;8.562;2022-08-19T00:35:44;100128.19;;;21.71;72.69
62333;BME280;48624;49.812;8.562;2022-08-19T00:38:10;100129.75;;;21.80;72.09
62333;BME280;48624;49.812;8.562;2022-08-19T00:40:35;100129.00;;;21.71;72.56
62333;BME280;48624;49.812;8.562;2022-08-19T00:43:00;100122.75;;;21.56;74.05
62333;BME280;48624;49.812;8.562;2022-08-19T00:45:27;100114.38;;;21.66;73.31
62333;BME280;48624;49.812;8.562;2022-08-19T00:47:53;100114.75;;;21.62;73.80
62333;BME280;48624;49.812;8.562;2022-08-19T00:50:20;100105.25;;;21.67;73.69
62333;BME280;48624;49.812;8.562;2022-08-19T00:52:48;100107.13;;;21.66;73.81
62333;BME280;48624;49.812;8.562;2022-08-19T00:55:19;100099.06;;;21.66;73.63
62333;BME280;48624;49.812;8.562;2022-08-19T00:57:52;100097.09;;;21.60;74.25
62333;BME280;48624;49.812;8.562;2022-08-19T01:00:21;100091.03;;;21.28;76.41
62333;BME280;48624;49.812;8.562;2022-08-19T01:02:47;100098.75;;;21.46;75.09
62333;BME280;48624;49.812;8.562;2022-08-19T01:05:17;100097.25;;;21.43;74.42
62333;BME280;48624;49.812;8.562;2022-08-19T01:07:44;100101.91;;;21.34;74.81
62333;BME280;48624;49.812;8.562;2022-08-19T01:10:12;100107.19;;;21.13;76.04
62333;BME280;48624;49.812;8.562;2022-08-19T01:12:39;100105.16;;;21.30;75.18
62333;BME280;48624;49.812;8.562;2022-08-19T01:15:07;100101.53;;;21.38;74.17
62333;BME280;48624;49.812;8.562;2022-08-19T01:17:34;100103.03;;;21.40;73.84
62333;BME280;48624;49.812;8.562;2022-08-19T01:20:00;100106.03;;;21.45;73.17
62333;BME280;48624;49.812;8.562;2022-08-19T01:22:30;100103.59;;;21.51;72.89
62333;BME280;48624;49.812;8.562;2022-08-19T01:24:57;100101.00;;;21.57;72.07
62333;BME280;48624;49.812;8.562;2022-08-19T01:27:22;100087.16;;;21.60;71.98
62333;BME280;48624;49.812;8.562;2022-08-19T01:29:47;100098.41;;;21.64;71.98
62333;BME280;48624;49.812;8.562;2022-08-19T01:32:15;100105.25;;;21.67;71.62
62333;BME280;48624;49.812;8.562;2022-08-19T01:34:41;100112.56;;;21.81;70.60
62333;BME280;48624;49.812;8.562;2022-08-19T01:37:09;100111.72;;;21.81;70.51
62333;BME280;48624;49.812;8.562;2022-08-19T01:39:37;100111.72;;;21.81;70.72
62333;BME280;48624;49.812;8.562;2022-08-19T01:42:03;100114.63;;;21.79;70.68
62333;BME280;48624;49.812;8.562;2022-08-19T01:44:29;100123.44;;;21.88;70.26
62333;BME280;48624;49.812;8.562;2022-08-19T01:46:55;100112.47;;;21.89;70.00
62333;BME280;48624;49.812;8.562;2022-08-19T01:49:23;100114.38;;;21.96;69.35
62333;BME280;48624;49.812;8.562;2022-08-19T01:51:49;100109.47;;;21.99;68.95
62333;BME280;48624;49.812;8.562;2022-08-19T01:54:17;100109.09;;;22.02;68.81
62333;BME280;48624;49.812;8.562;2022-08-19T01:56:43;100113.56;;;21.95;68.74
62333;BME280;48624;49.812;8.562;2022-08-19T01:59:12;100118.88;;;21.88;69.08
62333;BME280;48624;49.812;8.562;2022-08-19T02:01:38;100114.13;;;21.90;68.78
62333;BME280;48624;49.812;8.562;2022-08-19T02:04:04;100108.56;;;21.92;68.26
62333;BME280;48624;49.812;8.562;2022-08-19T02:06:30;100117.09;;;21.81;69.09
62333;BME280;48624;49.812;8.562;2022-08-19T02:08:56;100102.72;;;21.73;69.21
62333;BME280;48624;49.812;8.562;2022-08-19T02:11:28;100110.34;;;21.70;69.35
62333;BME280;48624;49.812;8.562;2022-08-19T02:13:56;100114.53;;;21.72;68.45
62333;BME280;48624;49.812;8.562;2022-08-19T02:16:22;100114.94;;;21.46;69.73
62333;BME280;48624;49.812;8.562;2022-08-19T02:18:47;100121.09;;;21.55;69.23
62333;BME280;48624;49.812;8.562;2022-08-19T02:21:17;100120.78;;;21.49;69.43
62333;BME280;48624;49.812;8.562;2022-08-19T02:23:43;100124.22;;;21.43;69.21
62333;BME280;48624;49.812;8.562;2022-08-19T02:26:09;100140.59;;;21.42;68.95
62333;BME280;48624;49.812;8.562;2022-08-19T02:28:35;100128.78;;;21.43;69.56
62333;BME280;48624;49.812;8.562;2022-08-19T02:31:02;100130.63;;;21.42;70.54
62333;BME280;48624;49.812;8.562;2022-08-19T02:33:28;100127.44;;;21.24;72.33
62333;BME280;48624;49.812;8.562;2022-08-19T02:35:53;100128.75;;;21.28;72.87
62333;BME280;48624;49.812;8.562;2022-08-19T02:38:19;100123.00;;;21.31;72.59
62333;BME280;48624;49.812;8.562;2022-08-19T02:43:21;100113.16;;;21.38;73.14
62333;BME280;48624;49.812;8.562;2022-08-19T02:45:47;100122.06;;;21.39;72.93
62333;BME280;48624;49.812;8.562;2022-08-19T02:48:17;100136.47;;;21.31;73.60
62333;BME280;48624;49.812;8.562;2022-08-19T02:50:44;100128.09;;;21.26;73.79
62333;BME280;48624;49.812;8.562;2022-08-19T02:53:10;100134.31;;;21.26;73.90
62333;BME280;48624;49.812;8.562;2022-08-19T02:55:35;100129.13;;;21.25;73.77
62333;BME280;48624;49.812;8.562;2022-08-19T02:58:00;100129.13;;;21.25;73.82
62333;BME280;48624;49.812;8.562;2022-08-19T03:00:26;100122.72;;;21.26;74.24
62333;BME280;48624;49.812;8.562;2022-08-19T03:02:52;100125.81;;;21.14;74.60
62333;BME280;48624;49.812;8.562;2022-08-19T03:05:18;100133.56;;;21.17;75.02
62333;BME280;48624;49.812;8.562;2022-08-19T03:07:43;100130.66;;;21.19;74.44
62333;BME280;48624;49.812;8.562;2022-08-19T03:10:09;100123.06;;;21.23;74.77
62333;BME280;48624;49.812;8.562;2022-08-19T03:12:37;100126.72;;;21.30;74.31
62333;BME280;48624;49.812;8.562;2022-08-19T03:15:04;100130.25;;;21.30;74.20
62333;BME280;48624;49.812;8.562;2022-08-19T03:17:30;100133.03;;;21.37;73.84
62333;BME280;48624;49.812;8.562;2022-08-19T03:19:55;100140.94;;;21.39;73.99
62333;BME280;48624;49.812;8.562;2022-08-19T03:22:20;100133.38;;;21.34;73.71
62333;BME280;48624;49.812;8.562;2022-08-19T03:24:45;100132.28;;;21.28;73.80
62333;BME280;48624;49.812;8.562;2022-08-19T03:27:11;100136.53;;;21.23;74.16
62333;BME280;48624;49.812;8.562;2022-08-19T03:29:37;100130.03;;;21.17;74.41
62333;BME280;48624;49.812;8.562;2022-08-19T03:32:04;100141.00;;;21.15;74.21
62333;BME280;48624;49.812;8.562;2022-08-19T03:34:31;100132.50;;;21.03;74.62
62333;BME280;48624;49.812;8.562;2022-08-19T03:36:59;100134.66;;;21.08;73.78
62333;BME280;48624;49.812;8.562;2022-08-19T03:39:27;100132.03;;;21.00;73.47
62333;BME280;48624;49.812;8.562;2022-08-19T03:41:54;100129.34;;;21.00;72.99
62333;BME280;48624;49.812;8.562;2022-08-19T03:44:22;100129.34;;;21.00;73.15
62333;BME280;48624;49.812;8.562;2022-08-19T03:46:51;100131.19;;;20.99;73.13
62333;BME280;48624;49.812;8.562;2022-08-19T03:49:17;100144.06;;;20.89;73.67
62333;BME280;48624;49.812;8.562;2022-08-19T03:51:43;100150.47;;;20.88;73.84
62333;BME280;48624;49.812;8.562;2022-08-19T03:54:11;100147.31;;;20.76;73.50
62333;BME280;48624;49.812;8.562;2022-08-19T03:56:39;100156.50;;;20.82;73.99
62333;BME280;48624;49.812;8.562;2022-08-19T03:59:06;100155.03;;;20.87;73.46
62333;BME280;48624;49.812;8.562;2022-08-19T04:01:32;100161.28;;;21.03;72.24
62333;BME280;48624;49.812;8.562;2022-08-19T04:03:59;100153.25;;;20.95;72.37
62333;BME280;48624;49.812;8.562;2022-08-19T04:06:28;100155.78;;;20.96;72.42
62333;BME280;48624;49.812;8.562;2022-08-19T04:08:56;100160.63;;;21.01;72.16
62333;BME280;48624;49.812;8.562;2022-08-19T04:11:28;100157.34;;;20.90;72.83
62333;BME280;48624;49.812;8.562;2022-08-19T04:13:54;100158.84;;;20.93;72.11
62333;BME280;48624;49.812;8.562;2022-08-19T04:16:21;100152.59;;;20.92;71.96
62333;BME280;48624;49.812;8.562;2022-08-19T04:18:48;100156.28;;;20.68;73.18
62333;BME280;48624;49.812;8.562;2022-08-19T04:21:21;100155.31;;;20.61;73.64
62333;BME280;48624;49.812;8.562;2022-08-19T04:23:47;100152.69;;;20.76;73.06
62333;BME280;48624;49.812;8.562;2022-08-19T04:26:18;100153.28;;;20.63;74.06
62333;BME280;48624;49.812;8.562;2022-08-19T04:28:44;100153.28;;;20.63;73.70
62333;BME280;48624;49.812;8.562;2022-08-19T04:31:14;100152.53;;;20.46;75.20
62333;BME280;48624;49.812;8.562;2022-08-19T04:33:40;100146.50;;;20.44;75.37
62333;BME280;48624;49.812;8.562;2022-08-19T04:36:06;100148.72;;;20.40;75.24
62333;BME280;48624;49.812;8.562;2022-08-19T04:38:31;100145.47;;;20.45;75.28
62333;BME280;48624;49.812;8.562;2022-08-19T04:40:57;100138.75;;;20.49;74.88
62333;BME280;48624;49.812;8.562;2022-08-19T04:43:40;100150.75;;;20.38;74.86
62333;BME280;48624;49.812;8.562;2022-08-19T04:46:08;100153.94;;;20.42;74.80
62333;BME280;48624;49.812;8.562;2022-08-19T04:48:34;100156.41;;;20.43;74.67
62333;BME280;48624;49.812;8.562;2022-08-19T04:51:00;100158.94;;;20.45;74.64
62333;BME280;48624;49.812;8.562;2022-08-19T04:53:30;100151.72;;;20.45;74.44
62333;BME280;48624;49.812;8.562;2022-08-19T04:55:56;100152.34;;;20.56;73.74
62333;BME280;48624;49.812;8.562;2022-08-19T04:58:24;100155.06;;;20.47;74.21
62333;BME280;48624;49.812;8.562;2022-08-19T05:00:49;100158.28;;;20.43;74.79
62333;BME280;48624;49.812;8.562;2022-08-19T05:03:16;100170.16;;;20.57;73.49
62333;BME280;48624;49.812;8.562;2022-08-19T05:05:43;100170.81;;;20.59;73.58
62333;BME280;48624;49.812;8.562;2022-08-19T05:08:10;100168.56;;;20.39;74.65
62333;BME280;48624;49.812;8.562;2022-08-19T05:10:36;100176.56;;;20.56;74.11
62333;BME280;48624;49.812;8.562;2022-08-19T05:13:02;100174.88;;;20.55;74.05
62333;BME280;48624;49.812;8.562;2022-08-19T05:15:28;100176.03;;;20.60;73.86
62333;BME280;48624;49.812;8.562;2022-08-19T05:17:54;100172.09;;;20.63;74.03
62333;BME280;48624;49.812;8.562;2022-08-19T05:20:38;100169.13;;;20.58;74.24
62333;BME280;48624;49.812;8.562;2022-08-19T05:23:22;100169.78;;;20.60;74.75
62333;BME280;48624;49.812;8.562;2022-08-19T05:25:47;100169.63;;;20.61;74.56
62333;BME280;48624;49.812;8.562;2022-08-19T05:28:13;100169.25;;;20.64;74.40
62333;BME280;48624;49.812;8.562;2022-08-19T05:30:38;100176.09;;;20.75;73.94
62333;BME280;48624;49.812;8.562;2022-08-19T05:33:05;100175.50;;;20.65;74.37
62333;BME280;48624;49.812;8.562;2022-08-19T05:35:31;100189.84;;;20.80;73.83
62333;BME280;48624;49.812;8.562;2022-08-19T05:37:56;100188.00;;;20.81;73.78
62333;BME280;48624;49.812;8.562;2022-08-19T05:40:22;100186.66;;;20.77;73.57
62333;BME280;48624;49.812;8.562;2022-08-19T05:42:47;100178.75;;;20.84;73.96
62333;BME280;48624;49.812;8.562;2022-08-19T05:45:14;100177.75;;;20.76;74.31
62333;BME280;48624;49.812;8.562;2022-08-19T05:47:40;100186.75;;;20.69;74.96
62333;BME280;48624;49.812;8.562;2022-08-19T05:50:05;100183.06;;;20.61;75.74
62333;BME280;48624;49.812;8.562;2022-08-19T05:52:31;100202.47;;;20.88;74.43
62333;BME280;48624;49.812;8.562;2022-08-19T05:54:56;100195.47;;;21.02;73.31
62333;BME280;48624;49.812;8.562;2022-08-19T05:57:22;100197.38;;;20.93;73.99
62333;BME280;48624;49.812;8.562;2022-08-19T05:59:48;100199.03;;;20.95;74.07
62333;BME280;48624;49.812;8.562;2022-08-19T06:02:16;100197.41;;;21.09;73.36
62333;BME280;48624;49.812;8.562;2022-08-19T06:04:42;100212.50;;;20.95;75.13
62333;BME280;48624;49.812;8.562;2022-08-19T06:07:10;100220.00;;;21.07;73.63
62333;BME280;48624;49.812;8.562;2022-08-19T06:09:35;100227.25;;;21.07;73.99
62333;BME280;48624;49.812;8.562;2022-08-19T06:12:01;100228.81;;;21.25;73.15
62333;BME280;48624;49.812;8.562;2022-08-19T06:14:33;100221.38;;;21.03;74.59
62333;BME280;48624;49.812;8.562;2022-08-19T06:17:00;100236.88;;;21.25;73.89
62333;BME280;48624;49.812;8.562;2022-08-19T06:19:28;100236.47;;;21.13;74.46
62333;BME280;48624;49.812;8.562;2022-08-19T06:21:58;100243.53;;;21.37;73.31
62333;BME280;48624;49.812;8.562;2022-08-19T06:24:26;100250.25;;;21.56;72.64
62333;BME280;48624;49.812;8.562;2022-08-19T06:26:54;100247.31;;;21.66;72.61
62333;BME280;48624;49.812;8.562;2022-08-19T06:29:22;100252.94;;;21.80;71.82
62333;BME280;48624;49.812;8.562;2022-08-19T06:31:50;100256.13;;;21.83;71.87
62333;BME280;48624;49.812;8.562;2022-08-19T06:34:17;100250.69;;;21.68;73.06
62333;BME280;48624;49.812;8.562;2022-08-19T06:36:48;100259.34;;;21.79;71.42
62333;BME280;48624;49.812;8.562;2022-08-19T06:39:17;100249.13;;;21.89;71.55
62333;BME280;48624;49.812;8.562;2022-08-19T06:41:46;100236.03;;;22.01;71.37
62333;BME280;48624;49.812;8.562;2022-08-19T06:44:12;100233.66;;;22.21;71.01
62333;BME280;48624;49.812;8.562;2022-08-19T06:46:39;100243.47;;;22.44;69.95
62333;BME280;48624;49.812;8.562;2022-08-19T06:49:05;100252.88;;;22.33;71.63
62333;BME280;48624;49.812;8.562;2022-08-19T06:51:31;100243.97;;;22.33;70.80
62333;BME280;48624;49.812;8.562;2022-08-19T06:53:59;100257.44;;;22.48;69.65
62333;BME280;48624;49.812;8.562;2022-08-19T06:56:26;100254.50;;;22.57;69.63
62333;BME280;48624;49.812;8.562;2022-08-19T06:59:10;100245.69;;;22.70;68.99
62333;BME280;48624;49.812;8.562;2022-08-19T07:01:42;100259.94;;;22.79;67.42
62333;BME280;48624;49.812;8.562;2022-08-19T07:04:09;100254.81;;;22.69;67.75
62333;BME280;48624;49.812;8.562;2022-08-19T07:06:35;100261.72;;;22.72;67.91
62333;BME280;48624;49.812;8.562;2022-08-19T07:09:05;100272.72;;;22.55;69.81
62333;BME280;48624;49.812;8.562;2022-08-19T07:11:31;100271.84;;;22.85;67.66
62333;BME280;48624;49.812;8.562;2022-08-19T07:13:57;100277.75;;;22.73;67.61
62333;BME280;48624;49.812;8.562;2022-08-19T07:16:23;100276.41;;;22.69;67.56
62333;BME280;48624;49.812;8.562;2022-08-19T07:18:49;100272.97;;;22.76;68.01
62333;BME280;48624;49.812;8.562;2022-08-19T07:21:20;100277.25;;;22.85;65.82
62333;BME280;48624;49.812;8.562;2022-08-19T07:23:46;100264.22;;;23.10;66.13
62333;BME280;48624;49.812;8.562;2022-08-19T07:26:16;100267.03;;;23.02;66.78
62333;BME280;48624;49.812;8.562;2022-08-19T07:28:42;100270.28;;;22.76;67.04
62333;BME280;48624;49.812;8.562;2022-08-19T07:31:16;100280.19;;;23.05;65.85
62333;BME280;48624;49.812;8.562;2022-08-19T07:33:43;100263.38;;;22.73;67.14
62333;BME280;48624;49.812;8.562;2022-08-19T07:36:13;100277.78;;;22.95;66.87
62333;BME280;48624;49.812;8.562;2022-08-19T07:38:41;100274.66;;;22.77;66.62
62333;BME280;48624;49.812;8.562;2022-08-19T07:41:08;100270.19;;;23.27;64.39
62333;BME280;48624;49.812;8.562;2022-08-19T07:43:33;100269.22;;;23.50;63.72
62333;BME280;48624;49.812;8.562;2022-08-19T07:45:59;100271.28;;;23.48;63.69
62333;BME280;48624;49.812;8.562;2022-08-19T07:48:26;100274.84;;;23.55;64.38
62333;BME280;48624;49.812;8.562;2022-08-19T07:50:53;100269.19;;;23.72;63.38
62333;BME280;48624;49.812;8.562;2022-08-19T07:53:23;100263.78;;;24.01;63.09
62333;BME280;48624;49.812;8.562;2022-08-19T07:55:48;100262.66;;;23.95;62.87
62333;BME280;48624;49.812;8.562;2022-08-19T07:58:17;100269.47;;;24.13;62.09
62333;BME280;48624;49.812;8.562;2022-08-19T08:00:44;100270.72;;;24.45;60.94
62333;BME280;48624;49.812;8.562;2022-08-19T08:03:10;100264.09;;;24.55;60.30
62333;BME280;48624;49.812;8.562;2022-08-19T08:05:35;100265.06;;;24.40;60.52
62333;BME280;48624;49.812;8.562;2022-08-19T08:08:19;100268.72;;;24.67;59.22
62333;BME280;48624;49.812;8.562;2022-08-19T08:11:04;100261.97;;;24.99;58.28
62333;BME280;48624;49.812;8.562;2022-08-19T08:13:30;100263.09;;;24.20;59.65
62333;BME280;48624;49.812;8.562;2022-08-19T08:15:59;100258.69;;;24.61;58.05
62333;BME280;48624;49.812;8.562;2022-08-19T08:18:24;100265.38;;;24.65;57.04
62333;BME280;48624;49.812;8.562;2022-08-19T08:20:50;100263.41;;;24.81;57.47
62333;BME280;48624;49.812;8.562;2022-08-19T08:23:15;100266.63;;;24.63;57.79
62333;BME280;48624;49.812;8.562;2022-08-19T08:25:57;100271.91;;;24.36;59.56
62333;BME280;48624;49.812;8.562;2022-08-19T08:28:23;100266.13;;;24.88;57.03
62333;BME280;48624;49.812;8.562;2022-08-19T08:30:49;100265.72;;;24.91;57.04
62333;BME280;48624;49.812;8.562;2022-08-19T08:33:20;100266.75;;;24.83;57.21
62333;BME280;48624;49.812;8.562;2022-08-19T08:35:46;100260.03;;;24.79;56.34
62333;BME280;48624;49.812;8.562;2022-08-19T08:38:13;100262.06;;;24.70;57.99
62333;BME280;48624;49.812;8.562;2022-08-19T08:43:11;100267.94;;;24.74;58.13
62333;BME280;48624;49.812;8.562;2022-08-19T08:45:52;100265.91;;;24.89;56.40
62333;BME280;48624;49.812;8.562;2022-08-19T08:48:47;100268.69;;;25.10;58.13
62333;BME280;48624;49.812;8.562;2022-08-19T08:51:18;100259.19;;;24.72;58.12
62333;BME280;48624;49.812;8.562;2022-08-19T08:53:46;100267.00;;;25.15;56.57
62333;BME280;48624;49.812;8.562;2022-08-19T08:56:13;100268.25;;;25.06;56.65
62333;BME280;48624;49.812;8.562;2022-08-19T08:58:49;100270.53;;;24.96;56.35
62333;BME280;48624;49.812;8.562;2022-08-19T09:01:16;100258.44;;;25.05;56.58
62333;BME280;48624;49.812;8.562;2022-08-19T09:03:42;100264.97;;;25.38;55.71
62333;BME280;48624;49.812;8.562;2022-08-19T09:06:36;100263.84;;;24.91;56.54
62333;BME280;48624;49.812;8.562;2022-08-19T09:11:55;100256.59;;;25.05;56.17
62333;BME280;48624;49.812;8.562;2022-08-19T09:14:28;100259.13;;;25.41;54.31
62333;BME280;48624;49.812;8.562;2022-08-19T09:16:57;100257.16;;;24.94;55.09
62333;BME280;48624;49.812;8.562;2022-08-19T09:19:23;100261.16;;;25.12;55.06
62333;BME280;48624;49.812;8.562;2022-08-19T09:21:48;100263.63;;;24.86;55.18
62333;BME280;48624;49.812;8.562;2022-08-19T09:24:15;100260.78;;;25.28;53.51
62333;BME280;48624;49.812;8.562;2022-08-19T09:26:40;100259.56;;;24.69;55.39
62333;BME280;48624;49.812;8.562;2022-08-19T09:29:09;100269.09;;;25.13;54.36
62333;BME280;48624;49.812;8.562;2022-08-19T09:31:35;100268.72;;;25.23;54.45
62333;BME280;48624;49.812;8.562;2022-08-19T09:34:01;100268.72;;;25.23;53.42
62333;BME280;48624;49.812;8.562;2022-08-19T09:36:30;100263.97;;;25.52;53.20
62333;BME280;48624;49.812;8.562;2022-08-19T09:38:59;100268.97;;;25.62;53.48
62333;BME280;48624;49.812;8.562;2022-08-19T09:41:25;100256.41;;;25.14;53.79
62333;BME280;48624;49.812;8.562;2022-08-19T09:43:57;100262.22;;;25.17;54.07
62333;BME280;48624;49.812;8.562;2022-08-19T09:46:25;100244.97;;;25.79;52.04
62333;BME280;48624;49.812;8.562;2022-08-19T09:48:53;100257.09;;;25.76;52.72
62333;BME280;48624;49.812;8.562;2022-08-19T09:51:22;100253.88;;;26.13;50.84
62333;BME280;48624;49.812;8.562;2022-08-19T09:53:49;100241.94;;;26.41;50.14
62333;BME280;48624;49.812;8.562;2022-08-19T09:56:20;100249.50;;;26.33;50.97
62333;BME280;48624;49.812;8.562;2022-08-19T09:58:45;100257.63;;;26.19;50.74
62333;BME280;48624;49.812;8.562;2022-08-19T10:01:17;100251.84;;;25.88;51.98
62333;BME280;48624;49.812;8.562;2022-08-19T10:03:48;100244.63;;;26.41;51.31
62333;BME280;48624;49.812;8.562;2022-08-19T10:06:14;100250.78;;;26.69;49.50
62333;BME280;48624;49.812;8.562;2022-08-19T10:08:39;100248.78;;;26.51;50.02
62333;BME280;48624;49.812;8.562;2022-08-19T10:11:05;100242.50;;;26.57;50.62
62333;BME280;48624;49.812;8.562;2022-08-19T10:13:31;100253.84;;;26.93;49.58
62333;BME280;48624;49.812;8.562;2022-08-19T10:16:07;100253.25;;;27.48;46.58
62333;BME280;48624;49.812;8.562;2022-08-19T10:18:33;100250.72;;;26.82;49.22
62333;BME280;48624;49.812;8.562;2022-08-19T10:21:17;100256.00;;;27.92;44.76
62333;BME280;48624;49.812;8.562;2022-08-19T10:23:45;100250.28;;;27.24;47.87
62333;BME280;48624;49.812;8.562;2022-08-19T10:26:14;100252.25;;;26.71;48.51
62333;BME280;48624;49.812;8.562;2022-08-19T10:28:40;100254.84;;;26.98;47.32
62333;BME280;48624;49.812;8.562;2022-08-19T10:31:20;100247.91;;;27.03;48.77
62333;BME280;48624;49.812;8.562;2022-08-19T10:33:47;100238.56;;;27.49;46.80
62333;BME280;48624;49.812;8.562;2022-08-19T10:36:19;100243.78;;;27.58;46.25
62333;BME280;48624;49.812;8.562;2022-08-19T10:38:50;100251.34;;;28.00;44.98
62333;BME280;48624;49.812;8.562;2022-08-19T10:41:19;100255.91;;;27.62;45.28
62333;BME280;48624;49.812;8.562;2022-08-19T10:43:45;100250.31;;;28.19;43.74
62333;BME280;48624;49.812;8.562;2022-08-19T10:46:13;100251.16;;;28.38;42.72
62333;BME280;48624;49.812;8.562;2022-08-19T10:48:39;100240.59;;;29.22;41.09
62333;BME280;48624;49.812;8.562;2022-08-19T10:51:05;100238.22;;;28.34;44.04
62333;BME280;48624;49.812;8.562;2022-08-19T10:54:00;100230.25;;;29.55;40.11
62333;BME280;48624;49.812;8.562;2022-08-19T10:56:28;100231.78;;;29.74;39.79
62333;BME280;48624;49.812;8.562;2022-08-19T10:59:13;100222.78;;;28.46;43.63
62333;BME280;48624;49.812;8.562;2022-08-19T11:01:41;100223.44;;;28.60;42.21
62333;BME280;48624;49.812;8.562;2022-08-19T11:04:06;100224.22;;;28.30;42.99
62333;BME280;48624;49.812;8.562;2022-08-19T11:06:36;100222.03;;;28.70;41.93
62333;BME280;48624;49.812;8.562;2022-08-19T11:09:04;100215.53;;;28.71;42.94
62333;BME280;48624;49.812;8.562;2022-08-19T11:11:30;100218.94;;;29.87;40.25
62333;BME280;48624;49.812;8.562;2022-08-19T11:13:57;100214.00;;;29.05;40.15
62333;BME280;48624;49.812;8.562;2022-08-19T11:16:25;100217.31;;;29.50;39.83
62333;BME280;48624;49.812;8.562;2022-08-19T11:18:53;100210.69;;;29.46;40.64
62333;BME280;48624;49.812;8.562;2022-08-19T11:21:23;100210.38;;;29.24;39.33
62333;BME280;48624;49.812;8.562;2022-08-19T11:23:51;100192.75;;;29.50;38.87
62333;BME280;48624;49.812;8.562;2022-08-19T11:26:18;100190.44;;;30.48;37.56
62333;BME280;48624;49.812;8.562;2022-08-19T11:28:44;100187.53;;;29.72;38.31
62333;BME280;48624;49.812;8.562;2022-08-19T11:31:15;100183.28;;;30.70;37.09
62333;BME280;48624;49.812;8.562;2022-08-19T11:33:41;100186.06;;;30.06;37.34
62333;BME280;48624;49.812;8.562;2022-08-19T11:36:07;100185.59;;;29.37;39.19
62333;BME280;48624;49.812;8.562;2022-08-19T11:38:34;100178.75;;;30.64;37.04
62333;BME280;48624;49.812;8.562;2022-08-19T11:41:03;100187.53;;;29.84;37.85
62333;BME280;48624;49.812;8.562;2022-08-19T11:43:29;100190.97;;;29.56;37.30
62333;BME280;48624;49.812;8.562;2022-08-19T11:45:55;100197.50;;;29.79;38.00
62333;BME280;48624;49.812;8.562;2022-08-19T11:48:21;100193.94;;;29.78;37.07
62333;BME280;48624;49.812;8.562;2022-08-19T11:50:52;100186.31;;;29.92;37.93
62333;BME280;48624;49.812;8.562;2022-08-19T11:53:19;100179.16;;;31.02;34.60
62333;BME280;48624;49.812;8.562;2022-08-19T11:55:48;100182.25;;;30.48;36.30
62333;BME280;48624;49.812;8.562;2022-08-19T11:58:17;100177.31;;;30.73;35.13
62333;BME280;48624;49.812;8.562;2022-08-19T12:00:43;100176.09;;;31.50;33.72
62333;BME280;48624;49.812;8.562;2022-08-19T12:03:10;100166.59;;;30.43;36.52
62333;BME280;48624;49.812;8.562;2022-08-19T12:05:37;100174.44;;;31.14;34.98
62333;BME280;48624;49.812;8.562;2022-08-19T12:08:02;100175.50;;;31.65;33.69
62333;BME280;48624;49.812;8.562;2022-08-19T12:10:28;100179.75;;;31.55;34.29
62333;BME280;48624;49.812;8.562;2022-08-19T12:12:54;100178.56;;;30.01;37.37
62333;BME280;48624;49.812;8.562;2022-08-19T12:15:19;100170.03;;;31.65;33.72
62333;BME280;48624;49.812;8.562;2022-08-19T12:17:44;100169.13;;;31.08;34.24
62333;BME280;48624;49.812;8.562;2022-08-19T12:20:11;100163.78;;;30.67;35.49
62333;BME280;48624;49.812;8.562;2022-08-19T12:22:38;100169.63;;;30.58;36.13
62333;BME280;48624;49.812;8.562;2022-08-19T12:25:07;100167.78;;;30.93;34.86
62333;BME280;48624;49.812;8.562;2022-08-19T12:27:33;100161.06;;;31.01;34.53
62333;BME280;48624;49.812;8.562;2022-08-19T12:30:00;100158.56;;;30.65;35.40
62333;BME280;48624;49.812;8.562;2022-08-19T12:32:26;100162.03;;;30.78;34.52
62333;BME280;48624;49.812;8.562;2022-08-19T12:34:52;100160.66;;;30.46;34.15
62333;BME280;48624;49.812;8.562;2022-08-19T12:37:17;100170.75;;;30.92;34.19
62333;BME280;48624;49.812;8.562;2022-08-19T12:39:43;100166.06;;;31.04;34.49
62333;BME280;48624;49.812;8.562;2022-08-19T12:42:11;100156.88;;;31.84;31.79
62333;BME280;48624;49.812;8.562;2022-08-19T12:44:38;100159.88;;;31.65;31.99
62333;BME280;48624;49.812;8.562;2022-08-19T12:47:13;100150.91;;;32.59;28.75
62333;BME280;48624;49.812;8.562;2022-08-19T12:49:39;100156.91;;;31.67;32.28
62333;BME280;48624;49.812;8.562;2022-08-19T12:52:05;100152.09;;;31.57;31.03
62333;BME280;48624;49.812;8.562;2022-08-19T12:54:30;100153.59;;;32.32;31.08
62333;BME280;48624;49.812;8.562;2022-08-19T12:56:57;100153.38;;;30.81;31.50
62333;BME280;48624;49.812;8.562;2022-08-19T12:59:23;100149.31;;;31.35;30.50
62333;BME280;48624;49.812;8.562;2022-08-19T13:01:48;100153.13;;;31.51;29.90